createdAt,value
2023-05-24T00:00:44.542Z,58.77
2023-05-24T00:01:44.522Z,58.73
2023-05-24T00:02:43.674Z,58.75
2023-05-24T00:03:44.588Z,58.82
2023-05-24T00:04:44.515Z,58.83
2023-05-24T00:05:44.498Z,58.80
2023-05-24T00:06:44.477Z,58.77
2023-05-24T00:07:43.448Z,58.78
2023-05-24T00:08:44.446Z,58.78
2023-05-24T00:09:43.465Z,58.78
2023-05-24T00:10:43.574Z,58.80
2023-05-24T00:11:44.429Z,58.82
2023-05-24T00:12:43.419Z,58.81
2023-05-24T00:13:44.445Z,58.80
2023-05-24T00:14:43.424Z,58.74
2023-05-24T00:15:45.207Z,58.75
2023-05-24T00:16:43.449Z,58.79
2023-05-24T00:17:43.444Z,58.77
2023-05-24T00:18:44.392Z,58.77
2023-05-24T00:19:44.370Z,58.79
2023-05-24T00:20:44.846Z,58.77
2023-05-24T00:21:44.371Z,58.79
2023-05-24T00:22:43.358Z,58.73
2023-05-24T00:23:43.338Z,58.81
2023-05-24T00:24:43.319Z,58.79
2023-05-24T00:25:44.332Z,58.76
2023-05-24T00:26:43.337Z,58.80
2023-05-24T00:27:44.330Z,58.78
2023-05-24T00:28:44.308Z,58.74
2023-05-24T00:29:44.311Z,58.77
2023-05-24T00:30:44.447Z,58.76
2023-05-24T00:31:43.398Z,58.76
2023-05-24T00:32:43.350Z,58.84
2023-05-24T00:33:43.274Z,58.80
2023-05-24T00:34:44.266Z,58.80
2023-05-24T00:35:43.277Z,58.81
2023-05-24T00:36:44.258Z,58.79
2023-05-24T00:37:43.283Z,58.79
2023-05-24T00:38:43.272Z,58.75
2023-05-24T00:39:43.256Z,58.81
2023-05-24T00:40:44.405Z,58.79
2023-05-24T00:41:43.246Z,58.80
2023-05-24T00:42:44.297Z,58.75
2023-05-24T00:43:43.343Z,58.77
2023-05-24T00:44:44.313Z,58.79
2023-05-24T00:45:44.399Z,58.78
2023-05-24T00:46:43.398Z,58.77
2023-05-24T00:47:43.473Z,58.79
2023-05-24T00:48:43.449Z,58.78
2023-05-24T00:49:44.448Z,58.81
2023-05-24T00:50:44.581Z,58.83
2023-05-24T00:51:43.504Z,58.85
2023-05-24T00:52:43.574Z,58.79
2023-05-24T00:53:43.576Z,58.80
2023-05-24T00:54:43.622Z,58.84
2023-05-24T00:55:44.625Z,58.84
2023-05-24T00:56:44.675Z,58.82
2023-05-24T00:57:43.689Z,58.83
2023-05-24T00:58:44.719Z,58.83
2023-05-24T00:59:44.763Z,58.87
2023-05-24T01:00:43.852Z,58.81
2023-05-24T01:01:43.833Z,58.80
2023-05-24T01:02:43.938Z,58.83
2023-05-24T01:03:44.024Z,58.86
2023-05-24T01:04:43.919Z,58.89
2023-05-24T01:05:44.956Z,58.84
2023-05-24T01:06:45.117Z,58.81
2023-05-24T01:07:45.039Z,58.82
2023-05-24T01:08:45.058Z,58.87
2023-05-24T01:09:45.097Z,58.82
2023-05-24T01:10:44.307Z,58.81
2023-05-24T01:11:45.158Z,58.87
2023-05-24T01:12:45.219Z,58.86
2023-05-24T01:13:44.211Z,58.82
2023-05-24T01:14:44.262Z,58.84
2023-05-24T01:15:45.321Z,58.82
2023-05-24T01:16:44.321Z,58.85
2023-05-24T01:17:45.429Z,58.85
2023-05-24T01:18:45.406Z,58.81
2023-05-24T01:19:45.381Z,58.84
2023-05-24T01:20:44.767Z,58.81
2023-05-24T01:21:45.444Z,58.81
2023-05-24T01:22:45.487Z,58.89
2023-05-24T01:23:44.513Z,58.85
2023-05-24T01:24:45.587Z,58.84
2023-05-24T01:25:45.598Z,58.82
2023-05-24T01:26:44.615Z,58.82
2023-05-24T01:27:45.656Z,58.84
2023-05-24T01:28:44.682Z,58.84
2023-05-24T01:29:44.735Z,58.83
2023-05-24T01:30:45.764Z,58.85
2023-05-24T01:31:44.785Z,58.85
2023-05-24T01:32:45.787Z,58.86
2023-05-24T01:33:45.837Z,58.86
2023-05-24T01:34:45.814Z,58.80
2023-05-24T01:35:44.810Z,58.84
2023-05-24T01:36:45.833Z,58.87
2023-05-24T01:37:44.850Z,58.84
2023-05-24T01:38:44.855Z,58.89
2023-05-24T01:39:45.871Z,58.86
2023-05-24T01:40:45.881Z,58.88
2023-05-24T01:41:45.883Z,58.90
2023-05-24T01:42:44.938Z,58.88
2023-05-24T01:43:45.951Z,58.89
2023-05-24T01:44:45.999Z,58.88
2023-05-24T01:45:46.048Z,58.89
2023-05-24T01:46:45.055Z,58.88
2023-05-24T01:47:45.134Z,58.88
2023-05-24T01:48:46.095Z,58.83
2023-05-24T01:49:45.095Z,58.80
2023-05-24T01:50:46.181Z,58.86
2023-05-24T01:51:46.188Z,58.88
2023-05-24T01:52:46.198Z,58.86
2023-05-24T01:53:45.208Z,58.85
2023-05-24T01:54:45.244Z,58.83
2023-05-24T01:55:46.247Z,58.87
2023-05-24T01:56:45.283Z,58.82
2023-05-24T01:57:46.318Z,58.86
2023-05-24T01:58:46.306Z,58.86
2023-05-24T01:59:46.333Z,58.87
2023-05-24T02:00:45.500Z,58.83
2023-05-24T02:01:45.394Z,58.85
2023-05-24T02:02:46.582Z,58.84
2023-05-24T02:03:45.436Z,58.83
2023-05-24T02:04:45.472Z,58.84
2023-05-24T02:05:45.553Z,58.88
2023-05-24T02:06:46.587Z,58.85
2023-05-24T02:07:45.594Z,58.82
2023-05-24T02:08:45.637Z,58.87
2023-05-24T02:09:46.701Z,58.85
2023-05-24T02:10:45.696Z,58.85
2023-05-24T02:11:46.744Z,58.85
2023-05-24T02:12:45.789Z,58.85
2023-05-24T02:13:45.820Z,58.84
2023-05-24T02:14:46.845Z,58.84
2023-05-24T02:15:46.885Z,58.85
2023-05-24T02:16:47.125Z,58.86
2023-05-24T02:17:46.980Z,58.85
2023-05-24T02:18:46.963Z,58.86
2023-05-24T02:19:45.958Z,58.86
2023-05-24T02:20:47.137Z,58.90
2023-05-24T02:21:47.023Z,58.86
2023-05-24T02:22:46.066Z,58.88
2023-05-24T02:23:47.094Z,58.84
2023-05-24T02:24:47.140Z,58.87
2023-05-24T02:25:46.119Z,58.85
2023-05-24T02:26:47.160Z,58.86
2023-05-24T02:27:47.267Z,58.86
2023-05-24T02:28:47.243Z,58.85
2023-05-24T02:29:47.262Z,58.85
2023-05-24T02:30:47.350Z,58.84
2023-05-24T02:31:46.352Z,58.86
2023-05-24T02:32:46.421Z,58.83
2023-05-24T02:33:46.437Z,58.87
2023-05-24T02:34:47.463Z,58.84
2023-05-24T02:35:46.481Z,58.87
2023-05-24T02:36:47.539Z,58.88
2023-05-24T02:37:47.569Z,58.88
2023-05-24T02:38:47.621Z,58.86
2023-05-24T02:39:47.630Z,58.86
2023-05-24T02:40:47.639Z,58.88
2023-05-24T02:41:47.709Z,58.84
2023-05-24T02:42:46.749Z,58.87
2023-05-24T02:43:47.735Z,58.85
2023-05-24T02:44:47.735Z,58.87
2023-05-24T02:45:46.750Z,58.83
2023-05-24T02:46:47.834Z,58.88
2023-05-24T02:47:47.851Z,58.90
2023-05-24T02:48:47.877Z,58.87
2023-05-24T02:49:47.876Z,58.88
2023-05-24T02:50:46.909Z,58.92
2023-05-24T02:51:47.945Z,58.86
2023-05-24T02:52:47.964Z,58.87
2023-05-24T02:53:47.001Z,58.87
2023-05-24T02:54:48.053Z,58.87
2023-05-24T02:55:48.069Z,58.88
2023-05-24T02:56:48.092Z,58.90
2023-05-24T02:57:48.196Z,58.91
2023-05-24T02:58:48.167Z,58.89
2023-05-24T02:59:47.210Z,58.89
2023-05-24T03:00:48.233Z,58.87
2023-05-24T03:01:47.280Z,58.87
2023-05-24T03:02:48.403Z,58.89
2023-05-24T03:03:48.361Z,58.88
2023-05-24T03:04:48.335Z,58.92
2023-05-24T03:05:48.373Z,58.91
2023-05-24T03:06:48.420Z,58.92
2023-05-24T03:07:48.434Z,58.89
2023-05-24T03:08:48.454Z,58.85
2023-05-24T03:09:48.488Z,58.90
2023-05-24T03:10:48.567Z,58.89
2023-05-24T03:11:47.546Z,58.90
2023-05-24T03:12:47.592Z,58.89
2023-05-24T03:13:48.705Z,58.88
2023-05-24T03:14:48.699Z,58.88
2023-05-24T03:15:48.883Z,58.90
2023-05-24T03:16:47.724Z,58.87
2023-05-24T03:17:48.793Z,58.85
2023-05-24T03:18:48.816Z,58.91
2023-05-24T03:19:47.890Z,58.89
2023-05-24T03:20:48.838Z,58.90
2023-05-24T03:21:48.877Z,58.94
2023-05-24T03:22:47.890Z,58.90
2023-05-24T03:23:48.953Z,58.88
2023-05-24T03:24:48.965Z,58.85
2023-05-24T03:25:48.999Z,58.90
2023-05-24T03:26:48.083Z,58.91
2023-05-24T03:27:49.083Z,58.87
2023-05-24T03:28:49.103Z,58.86
2023-05-24T03:29:48.128Z,58.89
2023-05-24T03:30:48.203Z,58.87
2023-05-24T03:31:48.267Z,58.88
2023-05-24T03:32:49.259Z,58.90
2023-05-24T03:33:48.269Z,58.88
2023-05-24T03:34:49.298Z,58.84
2023-05-24T03:35:49.283Z,58.88
2023-05-24T03:36:48.331Z,58.85
2023-05-24T03:37:49.333Z,58.87
2023-05-24T03:38:48.365Z,58.89
2023-05-24T03:39:49.406Z,58.84
2023-05-24T03:40:49.427Z,58.86
2023-05-24T03:41:48.483Z,58.88
2023-05-24T03:42:49.521Z,58.89
2023-05-24T03:43:49.539Z,58.86
2023-05-24T03:44:49.560Z,58.87
2023-05-24T03:45:48.714Z,58.89
2023-05-24T03:46:48.628Z,58.86
2023-05-24T03:47:48.761Z,58.86
2023-05-24T03:48:48.704Z,58.85
2023-05-24T03:49:48.731Z,58.86
2023-05-24T03:50:49.780Z,58.90
2023-05-24T03:51:49.815Z,58.86
2023-05-24T03:52:49.838Z,58.83
2023-05-24T03:53:49.886Z,58.88
2023-05-24T03:54:49.009Z,58.84
2023-05-24T03:55:49.920Z,58.84
2023-05-24T03:56:49.956Z,58.85
2023-05-24T03:57:48.988Z,58.86
2023-05-24T03:58:50.069Z,58.87
2023-05-24T03:59:50.053Z,58.84
2023-05-24T04:00:50.102Z,58.88
2023-05-24T04:01:50.116Z,58.87
2023-05-24T04:02:49.298Z,58.88
2023-05-24T04:03:50.264Z,58.86
2023-05-24T04:04:50.187Z,58.87
2023-05-24T04:05:49.225Z,58.84
2023-05-24T04:06:50.275Z,58.88
2023-05-24T04:07:49.279Z,58.82
2023-05-24T04:08:50.322Z,58.83
2023-05-24T04:09:50.353Z,58.86
2023-05-24T04:10:50.358Z,58.82
2023-05-24T04:11:50.379Z,58.80
2023-05-24T04:12:49.401Z,58.84
2023-05-24T04:13:50.406Z,58.81
2023-05-24T04:14:50.482Z,58.88
2023-05-24T04:15:50.464Z,58.86
2023-05-24T04:16:50.536Z,58.83
2023-05-24T04:17:50.560Z,58.89
2023-05-24T04:18:50.648Z,58.83
2023-05-24T04:19:50.587Z,58.86
2023-05-24T04:20:50.591Z,58.84
2023-05-24T04:21:50.623Z,58.88
2023-05-24T04:22:50.664Z,58.88
2023-05-24T04:23:49.683Z,58.86
2023-05-24T04:24:50.743Z,58.83
2023-05-24T04:25:50.734Z,58.87
2023-05-24T04:26:49.758Z,58.86
2023-05-24T04:27:50.770Z,58.87
2023-05-24T04:28:49.787Z,58.84
2023-05-24T04:29:50.800Z,58.84
2023-05-24T04:30:49.853Z,58.85
2023-05-24T04:31:50.882Z,58.87
2023-05-24T04:32:50.904Z,58.85
2023-05-24T04:33:50.885Z,58.83
2023-05-24T04:34:50.889Z,58.83
2023-05-24T04:35:50.883Z,58.86
2023-05-24T04:36:50.933Z,58.84
2023-05-24T04:37:50.960Z,58.84
2023-05-24T04:38:50.971Z,58.86
2023-05-24T04:39:50.006Z,58.84
2023-05-24T04:40:51.032Z,58.85
2023-05-24T04:41:51.048Z,58.80
2023-05-24T04:42:51.089Z,58.84
2023-05-24T04:43:51.061Z,58.86
2023-05-24T04:44:50.060Z,58.84
2023-05-24T04:45:51.107Z,58.86
2023-05-24T04:46:50.164Z,58.80
2023-05-24T04:47:50.210Z,58.85
2023-05-24T04:48:50.187Z,58.84
2023-05-24T04:49:51.200Z,58.83
2023-05-24T04:50:50.238Z,58.85
2023-05-24T04:51:52.432Z,58.85
2023-05-24T04:52:51.271Z,58.84
2023-05-24T04:53:50.284Z,58.82
2023-05-24T04:54:51.269Z,58.82
2023-05-24T04:55:51.247Z,58.82
2023-05-24T04:56:51.225Z,58.85
2023-05-24T04:57:51.227Z,58.83
2023-05-24T04:58:50.234Z,58.84
2023-05-24T04:59:50.217Z,58.83
2023-05-24T05:00:51.210Z,58.82
2023-05-24T05:01:51.298Z,58.81
2023-05-24T05:02:50.266Z,58.82
2023-05-24T05:03:51.272Z,58.81
2023-05-24T05:04:51.177Z,58.83
2023-05-24T05:05:51.159Z,58.84
2023-05-24T05:06:51.172Z,58.82
2023-05-24T05:07:51.156Z,58.82
2023-05-24T05:08:50.151Z,58.81
2023-05-24T05:09:50.135Z,58.82
2023-05-24T05:10:50.136Z,58.84
2023-05-24T05:11:51.122Z,58.84
2023-05-24T05:12:50.121Z,58.84
2023-05-24T05:13:51.119Z,58.83
2023-05-24T05:14:51.115Z,58.83
2023-05-24T05:15:50.112Z,58.82
2023-05-24T05:16:50.139Z,58.84
2023-05-24T05:17:50.143Z,58.81
2023-05-24T05:18:50.119Z,58.81
2023-05-24T05:19:51.117Z,58.82
2023-05-24T05:20:51.058Z,58.83
2023-05-24T05:21:51.090Z,58.81
2023-05-24T05:22:50.074Z,58.87
2023-05-24T05:23:51.043Z,58.84
2023-05-24T05:24:51.048Z,58.85
2023-05-24T05:25:50.041Z,58.82
2023-05-24T05:26:51.032Z,58.84
2023-05-24T05:27:51.024Z,58.82
2023-05-24T05:28:50.025Z,58.86
2023-05-24T05:29:50.012Z,58.85
2023-05-24T05:30:51.045Z,58.80
2023-05-24T05:31:50.032Z,58.81
2023-05-24T05:32:50.128Z,58.85
2023-05-24T05:33:50.023Z,58.80
2023-05-24T05:34:51.036Z,58.80
2023-05-24T05:35:53.441Z,58.80
2023-05-24T05:36:51.047Z,58.80
2023-05-24T05:37:51.017Z,58.79
2023-05-24T05:38:51.041Z,58.80
2023-05-24T05:39:50.038Z,58.81
2023-05-24T05:40:50.994Z,58.81
2023-05-24T05:41:50.993Z,58.80
2023-05-24T05:42:49.971Z,58.77
2023-05-24T05:43:50.982Z,58.81
2023-05-24T05:44:50.974Z,58.78
2023-05-24T05:45:50.040Z,58.78
2023-05-24T05:46:50.973Z,58.79
2023-05-24T05:47:50.987Z,58.81
2023-05-24T05:48:49.953Z,58.78
2023-05-24T05:49:50.935Z,58.78
2023-05-24T05:50:50.957Z,58.77
2023-05-24T05:51:49.936Z,58.79
2023-05-24T05:52:49.916Z,58.74
2023-05-24T05:53:50.929Z,58.75
2023-05-24T05:54:50.930Z,58.78
2023-05-24T05:55:50.880Z,58.77
2023-05-24T05:56:50.878Z,58.78
2023-05-24T05:57:50.874Z,58.74
2023-05-24T05:58:50.889Z,58.79
2023-05-24T05:59:49.891Z,58.73
2023-05-24T06:00:49.903Z,58.75
2023-05-24T06:01:49.921Z,58.76
2023-05-24T06:02:50.127Z,58.76
2023-05-24T06:03:50.149Z,58.74
2023-05-24T06:04:50.097Z,58.74
2023-05-24T06:05:51.036Z,58.74
2023-05-24T06:06:51.106Z,58.77
2023-05-24T06:07:50.094Z,58.73
2023-05-24T06:08:50.116Z,58.68
2023-05-24T06:09:51.140Z,58.68
2023-05-24T06:10:52.949Z,58.69
2023-05-24T06:11:50.120Z,58.74
2023-05-24T06:12:51.141Z,58.70
2023-05-24T06:13:50.127Z,58.70
2023-05-24T06:14:50.112Z,58.67
2023-05-24T06:15:51.125Z,58.65
2023-05-24T06:16:50.099Z,58.65
2023-05-24T06:17:51.144Z,58.69
2023-05-24T06:19:04.592Z,58.70
2023-05-24T06:19:51.129Z,58.65
2023-05-24T06:20:50.086Z,58.68
2023-05-24T06:21:50.072Z,58.65
2023-05-24T06:22:50.326Z,58.65
2023-05-24T06:23:51.062Z,58.65
2023-05-24T06:24:51.048Z,58.60
2023-05-24T06:25:51.032Z,58.63
2023-05-24T06:26:51.052Z,58.72
2023-05-24T06:27:51.018Z,58.62
2023-05-24T06:28:50.042Z,58.59
2023-05-24T06:29:51.043Z,58.64
2023-05-24T06:30:50.044Z,58.59
2023-05-24T06:31:51.409Z,58.54
2023-05-24T06:32:51.054Z,58.57
2023-05-24T06:34:02.740Z,58.56
2023-05-24T06:34:50.988Z,58.58
2023-05-24T06:35:50.054Z,58.58
2023-05-24T06:36:49.993Z,58.58
2023-05-24T06:37:50.950Z,58.58
2023-05-24T06:38:50.977Z,58.55
2023-05-24T06:39:50.942Z,58.53
2023-05-24T06:40:49.925Z,58.55
2023-05-24T06:41:50.946Z,58.53
2023-05-24T06:42:50.953Z,58.52
2023-05-24T06:43:49.929Z,58.56
2023-05-24T06:44:50.902Z,58.50
2023-05-24T06:45:50.905Z,58.54
2023-05-24T06:46:49.937Z,58.50
2023-05-24T06:47:50.957Z,58.57
2023-05-24T06:48:51.019Z,58.52
2023-05-24T06:49:50.874Z,58.52
2023-05-24T06:50:50.864Z,58.52
2023-05-24T06:51:50.854Z,58.47
2023-05-24T06:52:50.855Z,58.52
2023-05-24T06:53:50.842Z,58.51
2023-05-24T06:54:50.897Z,58.54
2023-05-24T06:55:50.846Z,58.52
2023-05-24T06:56:49.831Z,58.49
2023-05-24T06:57:50.925Z,58.47
2023-05-24T06:58:50.861Z,58.45
2023-05-24T06:59:50.887Z,58.45
2023-05-24T07:00:50.872Z,58.48
2023-05-24T07:01:50.840Z,58.44
2023-05-24T07:02:50.889Z,58.46
2023-05-24T07:03:50.762Z,58.46
2023-05-24T07:04:50.808Z,58.46
2023-05-24T07:05:50.743Z,58.47
2023-05-24T07:06:49.808Z,58.47
2023-05-24T07:07:49.819Z,58.42
2023-05-24T07:08:49.730Z,58.45
2023-05-24T07:09:50.735Z,58.40
2023-05-24T07:10:50.750Z,58.44
2023-05-24T07:11:50.758Z,58.41
2023-05-24T07:12:49.848Z,58.48
2023-05-24T07:13:50.701Z,58.45
2023-05-24T07:14:50.714Z,58.41
2023-05-24T07:15:50.693Z,58.37
2023-05-24T07:16:50.760Z,58.40
2023-05-24T07:17:50.724Z,58.38
2023-05-24T07:18:50.703Z,58.41
2023-05-24T07:19:49.816Z,58.43
2023-05-24T07:20:50.885Z,58.40
2023-05-24T07:21:49.789Z,58.39
2023-05-24T07:22:49.821Z,58.38
2023-05-24T07:23:50.878Z,58.37
2023-05-24T07:24:50.946Z,58.36
2023-05-24T07:25:49.973Z,58.38
2023-05-24T07:26:51.011Z,58.41
2023-05-24T07:27:51.015Z,58.38
2023-05-24T07:28:51.030Z,58.35
2023-05-24T07:29:51.076Z,58.36
2023-05-24T07:30:50.435Z,58.37
2023-05-24T07:31:51.140Z,58.38
2023-05-24T07:32:50.353Z,58.34
2023-05-24T07:33:51.175Z,58.37
2023-05-24T07:34:50.184Z,58.37
2023-05-24T07:35:51.266Z,58.37
2023-05-24T07:36:51.259Z,58.39
2023-05-24T07:37:51.259Z,58.31
2023-05-24T07:38:50.286Z,58.33
2023-05-24T07:39:51.321Z,58.33
2023-05-24T07:40:51.356Z,58.31
2023-05-24T07:41:50.359Z,58.32
2023-05-24T07:42:51.508Z,58.33
2023-05-24T07:43:50.407Z,58.30
2023-05-24T07:44:50.461Z,58.32
2023-05-24T07:45:51.492Z,58.27
2023-05-24T07:46:50.542Z,58.31
2023-05-24T07:47:50.547Z,58.33
2023-05-24T07:48:51.583Z,58.31
2023-05-24T07:49:51.887Z,58.26
2023-05-24T07:50:51.536Z,58.28
2023-05-24T07:51:51.599Z,58.26
2023-05-24T07:52:50.582Z,58.28
2023-05-24T07:53:51.893Z,58.30
2023-05-24T07:54:50.802Z,58.33
2023-05-24T07:55:50.768Z,58.31
2023-05-24T07:56:50.697Z,58.27
2023-05-24T07:57:51.759Z,58.40
2023-05-24T07:58:51.930Z,58.30
2023-05-24T07:59:51.864Z,58.38
2023-05-24T08:00:50.985Z,58.27
2023-05-24T08:01:51.926Z,58.23
2023-05-24T08:02:52.074Z,58.25
2023-05-24T08:03:52.109Z,58.25
2023-05-24T08:04:50.965Z,58.30
2023-05-24T08:05:50.959Z,58.26
2023-05-24T08:06:51.093Z,58.29
2023-05-24T08:07:51.046Z,58.25
2023-05-24T08:08:52.098Z,58.16
2023-05-24T08:09:52.181Z,58.09
2023-05-24T08:10:52.185Z,58.16
2023-05-24T08:11:51.187Z,58.11
2023-05-24T08:12:52.171Z,58.26
2023-05-24T08:13:52.194Z,58.19
2023-05-24T08:14:52.230Z,58.12
2023-05-24T08:15:52.294Z,58.03
2023-05-24T08:16:52.289Z,57.87
2023-05-24T08:17:52.234Z,58.08
2023-05-24T08:18:54.913Z,57.95
2023-05-24T08:19:51.238Z,57.95
2023-05-24T08:20:52.212Z,58.00
2023-05-24T08:21:51.177Z,57.80
2023-05-24T08:22:51.163Z,57.90
2023-05-24T08:23:52.182Z,58.00
2023-05-24T08:24:52.149Z,57.97
2023-05-24T08:25:51.153Z,57.97
2023-05-24T08:26:51.148Z,57.76
2023-05-24T08:27:52.248Z,57.80
2023-05-24T08:28:52.135Z,57.39
2023-05-24T08:29:53.587Z,57.48
2023-05-24T08:30:52.183Z,57.49
2023-05-24T08:31:51.139Z,57.49
2023-05-24T08:32:51.130Z,57.39
2023-05-24T08:33:52.120Z,57.22
2023-05-24T08:34:57.919Z,57.23
2023-05-24T08:35:52.084Z,57.36
2023-05-24T08:36:52.069Z,57.45
2023-05-24T08:37:52.135Z,57.32
2023-05-24T08:38:52.062Z,57.22
2023-05-24T08:39:51.048Z,57.54
2023-05-24T08:40:52.072Z,57.45
2023-05-24T08:42:07.956Z,57.53
2023-05-24T08:42:52.016Z,57.31
2023-05-24T08:43:52.017Z,57.31
2023-05-24T08:45:00.963Z,57.53
2023-05-24T08:45:52.071Z,57.38
2023-05-24T08:46:52.100Z,57.45
2023-05-24T08:47:52.130Z,57.43
2023-05-24T08:48:52.014Z,57.51
2023-05-24T08:49:52.010Z,57.48
2023-05-24T08:50:51.983Z,57.52
2023-05-24T08:51:51.957Z,57.60
2023-05-24T08:52:50.935Z,57.71
2023-05-24T08:53:52.124Z,57.69
2023-05-24T08:54:52.514Z,57.70
2023-05-24T08:55:51.947Z,57.66
2023-05-24T08:56:51.932Z,57.68
2023-05-24T08:57:51.930Z,57.72
2023-05-24T08:58:51.917Z,57.81
2023-05-24T08:59:51.909Z,57.81
2023-05-24T09:00:51.907Z,57.80
2023-05-24T09:01:51.935Z,57.92
2023-05-24T09:02:52.038Z,58.00
2023-05-24T09:03:50.970Z,57.96
2023-05-24T09:04:51.935Z,58.03
2023-05-24T09:05:50.888Z,57.97
2023-05-24T09:06:51.878Z,57.99
2023-05-24T09:07:51.860Z,57.97
2023-05-24T09:08:50.850Z,58.03
2023-05-24T09:09:51.885Z,58.05
2023-05-24T09:10:55.274Z,58.07
2023-05-24T09:11:51.983Z,58.13
2023-05-24T09:12:51.860Z,58.17
2023-05-24T09:13:51.849Z,58.14
2023-05-24T09:14:51.445Z,58.16
2023-05-24T09:15:51.849Z,58.27
2023-05-24T09:16:51.819Z,58.26
2023-05-24T09:17:51.838Z,58.27
2023-05-24T09:18:52.010Z,58.22
2023-05-24T09:19:51.818Z,58.27
2023-05-24T09:20:51.849Z,58.37
2023-05-24T09:21:51.755Z,58.02
2023-05-24T09:22:51.790Z,57.88
2023-05-24T09:23:50.745Z,57.93
2023-05-24T09:24:51.768Z,57.80
2023-05-24T09:25:51.832Z,57.69
2023-05-24T09:26:51.756Z,57.87
2023-05-24T09:27:51.812Z,57.65
2023-05-24T09:28:51.863Z,57.88
2023-05-24T09:29:50.958Z,57.79
2023-05-24T09:30:51.003Z,58.01
2023-05-24T09:31:52.072Z,57.90
2023-05-24T09:32:52.148Z,57.92
2023-05-24T09:33:52.123Z,57.96
2023-05-24T09:34:52.228Z,57.89
2023-05-24T09:35:51.163Z,57.96
2023-05-24T09:36:52.196Z,58.11
2023-05-24T09:37:51.228Z,58.20
2023-05-24T09:38:51.299Z,58.22
2023-05-24T09:39:52.283Z,58.30
2023-05-24T09:40:51.371Z,58.30
2023-05-24T09:41:52.324Z,58.34
2023-05-24T09:42:51.396Z,58.41
2023-05-24T09:43:51.373Z,58.44
2023-05-24T09:44:51.391Z,58.55
2023-05-24T09:45:52.394Z,58.68
2023-05-24T09:46:52.473Z,58.70
2023-05-24T09:47:52.496Z,58.83
2023-05-24T09:48:52.492Z,58.85
2023-05-24T09:49:52.525Z,58.90
2023-05-24T09:50:51.986Z,58.80
2023-05-24T09:51:51.602Z,58.83
2023-05-24T09:52:51.612Z,58.92
2023-05-24T09:53:52.684Z,58.79
2023-05-24T09:54:52.719Z,58.78
2023-05-24T09:55:52.838Z,58.66
2023-05-24T09:56:51.682Z,58.80
2023-05-24T09:57:52.645Z,58.68
2023-05-24T09:58:51.805Z,58.52
2023-05-24T09:59:52.627Z,58.54
2023-05-24T10:00:52.678Z,58.59
2023-05-24T10:01:52.671Z,58.50
2023-05-24T10:02:53.864Z,58.53
2023-05-24T10:03:51.922Z,58.47
2023-05-24T10:04:53.079Z,58.15
2023-05-24T10:05:52.803Z,58.08
2023-05-24T10:06:51.830Z,57.86
2023-05-24T10:07:52.787Z,58.05
2023-05-24T10:08:52.843Z,58.19
2023-05-24T10:09:51.817Z,58.17
2023-05-24T10:10:52.076Z,58.19
2023-05-24T10:11:52.894Z,58.23
2023-05-24T10:12:52.936Z,57.84
2023-05-24T10:13:51.938Z,58.07
2023-05-24T10:14:52.978Z,58.25
2023-05-24T10:15:53.055Z,58.06
2023-05-24T10:16:52.123Z,57.87
2023-05-24T10:17:53.200Z,58.00
2023-05-24T10:18:52.157Z,57.91
2023-05-24T10:19:53.249Z,57.42
2023-05-24T10:20:53.531Z,58.14
2023-05-24T10:21:53.253Z,58.39
2023-05-24T10:22:52.256Z,58.01
2023-05-24T10:23:52.282Z,58.06
2023-05-24T10:24:53.313Z,58.16
2023-05-24T10:25:53.366Z,58.11
2023-05-24T10:26:53.427Z,58.11
2023-05-24T10:27:53.486Z,58.17
2023-05-24T10:28:53.538Z,58.17
2023-05-24T10:29:53.594Z,58.13
2023-05-24T10:30:52.724Z,58.17
2023-05-24T10:31:53.690Z,58.19
2023-05-24T10:32:52.772Z,58.25
2023-05-24T10:33:57.123Z,58.34
2023-05-24T10:34:53.768Z,58.32
2023-05-24T10:35:52.803Z,58.30
2023-05-24T10:36:52.753Z,58.35
2023-05-24T10:37:53.745Z,58.29
2023-05-24T10:38:53.757Z,58.42
2023-05-24T10:39:53.743Z,58.28
2023-05-24T10:40:53.754Z,58.40
2023-05-24T10:41:52.737Z,58.49
2023-05-24T10:42:53.710Z,58.46
2023-05-24T10:44:08.008Z,58.48
2023-05-24T10:44:53.706Z,58.50
2023-05-24T10:45:53.726Z,58.47
2023-05-24T10:46:53.716Z,58.38
2023-05-24T10:47:52.726Z,58.51
2023-05-24T10:48:53.665Z,58.04
2023-05-24T10:49:53.679Z,58.31
2023-05-24T10:50:52.667Z,58.42
2023-05-24T10:51:52.644Z,58.46
2023-05-24T10:52:53.659Z,58.36
2023-05-24T10:53:53.644Z,58.41
2023-05-24T10:55:03.364Z,58.17
2023-05-24T10:55:53.759Z,58.28
2023-05-24T10:56:53.627Z,58.14
2023-05-24T10:57:53.611Z,58.31
2023-05-24T10:58:53.626Z,58.35
2023-05-24T10:59:53.588Z,58.50
2023-05-24T11:00:53.587Z,58.49
2023-05-24T11:01:53.692Z,58.65
2023-05-24T11:02:52.645Z,58.70
2023-05-24T11:03:52.582Z,58.69
2023-05-24T11:04:53.609Z,58.69
2023-05-24T11:05:53.649Z,58.72
2023-05-24T11:06:52.592Z,58.81
2023-05-24T11:07:52.541Z,59.07
2023-05-24T11:08:53.543Z,58.93
2023-05-24T11:09:53.537Z,58.98
2023-05-24T11:10:53.558Z,58.96
2023-05-24T11:11:52.521Z,59.02
2023-05-24T11:12:52.532Z,59.07
2023-05-24T11:13:53.549Z,59.10
2023-05-24T11:14:53.495Z,59.12
2023-05-24T11:15:53.530Z,59.12
2023-05-24T11:16:53.564Z,59.15
2023-05-24T11:17:53.538Z,59.14
2023-05-24T11:18:53.458Z,59.20
2023-05-24T11:19:53.827Z,59.29
2023-05-24T11:20:53.678Z,59.43
2023-05-24T11:21:52.469Z,59.35
2023-05-24T11:22:53.449Z,59.41
2023-05-24T11:23:52.462Z,59.52
2023-05-24T11:24:53.579Z,59.70
2023-05-24T11:25:52.427Z,59.83
2023-05-24T11:26:52.604Z,59.62
2023-05-24T11:27:52.427Z,59.55
2023-05-24T11:28:53.389Z,59.66
2023-05-24T11:29:52.461Z,59.05
2023-05-24T11:30:53.498Z,58.47
2023-05-24T11:31:52.734Z,58.71
2023-05-24T11:32:53.500Z,58.54
2023-05-24T11:33:53.474Z,58.59
2023-05-24T11:34:53.518Z,57.91
2023-05-24T11:35:53.510Z,58.41
2023-05-24T11:36:52.500Z,58.24
2023-05-24T11:37:52.516Z,57.88
2023-05-24T11:38:53.529Z,57.77
2023-05-24T11:39:53.527Z,58.01
2023-05-24T11:40:52.597Z,57.75
2023-05-24T11:41:53.577Z,57.57
2023-05-24T11:42:53.632Z,57.71
2023-05-24T11:43:52.587Z,57.68
2023-05-24T11:44:52.613Z,57.70
2023-05-24T11:45:52.806Z,57.71
2023-05-24T11:46:53.660Z,57.78
2023-05-24T11:47:52.785Z,57.91
2023-05-24T11:48:52.769Z,57.84
2023-05-24T11:49:52.889Z,57.82
2023-05-24T11:50:53.018Z,57.87
2023-05-24T11:51:53.871Z,57.98
2023-05-24T11:52:53.915Z,57.93
2023-05-24T11:53:54.720Z,58.01
2023-05-24T11:54:52.994Z,58.04
2023-05-24T11:55:54.049Z,57.98
2023-05-24T11:56:53.098Z,58.02
2023-05-24T11:57:54.136Z,58.06
2023-05-24T11:58:53.204Z,58.04
2023-05-24T11:59:53.241Z,58.06
2023-05-24T12:00:53.281Z,58.07
2023-05-24T12:01:53.319Z,58.15
2023-05-24T12:02:56.995Z,58.15
2023-05-24T12:03:54.611Z,58.13
2023-05-24T12:04:54.449Z,58.23
2023-05-24T12:05:53.368Z,58.25
2023-05-24T12:06:54.367Z,58.28
2023-05-24T12:07:54.351Z,58.25
2023-05-24T12:08:54.350Z,58.25
2023-05-24T12:09:53.332Z,58.26
2023-05-24T12:10:54.366Z,58.27
2023-05-24T12:11:53.322Z,58.28
2023-05-24T12:12:54.321Z,58.29
2023-05-24T12:13:54.309Z,58.32
2023-05-24T12:14:53.336Z,58.30
2023-05-24T12:15:56.567Z,58.30
2023-05-24T12:16:53.279Z,58.37
2023-05-24T12:17:54.323Z,58.41
2023-05-24T12:19:05.335Z,58.43
2023-05-24T12:19:54.322Z,58.45
2023-05-24T12:20:54.298Z,58.50
2023-05-24T12:21:54.250Z,58.55
2023-05-24T12:22:54.251Z,58.55
2023-05-24T12:23:53.241Z,58.54
2023-05-24T12:24:53.226Z,58.56
2023-05-24T12:25:53.245Z,58.56
2023-05-24T12:26:54.206Z,58.61
2023-05-24T12:27:54.643Z,58.58
2023-05-24T12:28:53.286Z,58.59
2023-05-24T12:29:54.336Z,58.64
2023-05-24T12:30:54.428Z,58.61
2023-05-24T12:31:54.454Z,58.65
2023-05-24T12:32:54.490Z,58.68
2023-05-24T12:33:54.442Z,58.68
2023-05-24T12:34:53.535Z,58.71
2023-05-24T12:35:53.639Z,58.71
2023-05-24T12:36:54.642Z,58.73
2023-05-24T12:37:53.653Z,58.75
2023-05-24T12:38:54.676Z,58.78
2023-05-24T12:39:54.795Z,58.80
2023-05-24T12:41:10.840Z,58.79
2023-05-24T12:41:54.722Z,58.79
2023-05-24T12:42:54.709Z,58.82
2023-05-24T12:43:53.713Z,58.81
2023-05-24T12:44:54.697Z,58.83
2023-05-24T12:45:54.769Z,58.92
2023-05-24T12:46:54.791Z,58.91
2023-05-24T12:47:54.694Z,58.91
2023-05-24T12:48:54.663Z,58.89
2023-05-24T12:49:53.679Z,58.91
2023-05-24T12:50:54.659Z,58.90
2023-05-24T12:51:54.640Z,58.90
2023-05-24T12:52:53.631Z,58.90